Aérodrome :
LOGIN :

S'inscrire | Disclaimer

   EN    FR    IT 

 










Légende :    VFR   VFR Marginal   IFR   IFR Intensif   IFR Très Intensif
Visi : 
Plafond : 
>= 8 km
>= 3000ft
5 à 8 km
1000 à 3000 ft
1500m à 5 km
500 à 1000 ft
800 à 1500m
200 à 500 ft
< 800m
< 200 ft
Symboles :   Orages  Brouillard  Fortes neiges  Fortes précipitations  Vent > 20 kt
SIGMETs :   Divers  Orages  Givrage  Turbulence  Onde Orograph.  Cendres Volcan.






- Altitude de l'aérodrome : 289 ft


LFYR - Romorantin Pruniers

DERNIER METAR :
  • 220000Z AUTO 00000KT CAVOK M00/M00 Q1031

METARs EXPIRÉS :
  • 212330Z AUTO 00000KT CAVOK M00/M01 Q1031
  • 212300Z AUTO 35001KT CAVOK 01/00 Q1031
  • 212230Z AUTO 19003KT CAVOK M01/M01 Q1031
  • 212200Z AUTO 00000KT CAVOK 00/00 Q1032
  • 212130Z AUTO 00000KT CAVOK 00/M00 Q1032
  • 212100Z AUTO 00000KT CAVOK 00/M01 Q1032

Prévision TAF périmée.



MET'MAP, la Météo Aéronautique d'un coup d'oeil ! - Copyright ORBIFLY Décembre 2007 - Disclaimer

ORBIFLY MET'MAP TEAM :

Programmation & Développement : Alexandra Zaïnal
Sur une idée originale de : Baudouin d'Aumeries
Assistance à la programmation : Marc-Olivier Méhu
Soutien technique & logistique : Manuel Goepfert

Contact : metmap@orbifly.com




SOURCES & CREDITS :

   NOAA